Time;durP1;ratioP1;P1;durP2;ratioP2;P2;SDS_P1;SDS_P2;PMS_P1;PMS_P2;Temp;Humidity;BMP_temperature;BMP_pressure;BME280_temperature;BME280_humidity;BME280_pressure;Samples;Min_cycle;Max_cycle;Signal;HPM_P1;HPM_P2
2021/09/23 00:00:48;;;;;;;17.00;14.97;;;11.90;99.90;;;;;;5017087;28;20198;-71
2021/09/23 00:03:20;;;;;;;17.50;14.27;;;11.90;99.90;;;;;;5036420;28;20202;-71
2021/09/23 00:05:46;;;;;;;18.30;16.07;;;11.90;99.90;;;;;;5036141;28;20410;-70
2021/09/23 00:08:11;;;;;;;20.03;14.57;;;12.00;99.90;;;;;;5032839;28;20425;-70
2021/09/23 00:10:40;;;;;;;19.60;15.70;;;12.00;99.90;;;;;;5035266;28;20182;-71
2021/09/23 00:13:07;;;;;;;19.37;15.10;;;12.10;99.90;;;;;;5034966;28;20229;-71
2021/09/23 00:15:34;;;;;;;20.63;15.37;;;11.90;99.90;;;;;;5035031;28;20409;-70
2021/09/23 00:18:07;;;;;;;21.07;16.27;;;11.80;99.90;;;;;;5033337;28;20485;-70
2021/09/23 00:20:36;;;;;;;22.40;17.87;;;11.70;99.90;;;;;;5034385;28;20814;-70
2021/09/23 00:23:02;;;;;;;28.63;18.70;;;11.50;99.90;;;;;;5016119;28;20454;-71
2021/09/23 00:25:28;;;;;;;21.70;17.63;;;11.50;99.90;;;;;;4997265;28;20423;-69
2021/09/23 00:27:55;;;;;;;24.67;18.87;;;11.50;99.90;;;;;;5014946;28;20429;-70
2021/09/23 00:30:21;;;;;;;21.70;16.70;;;11.60;99.90;;;;;;4997970;28;20190;-70
2021/09/23 00:32:49;;;;;;;25.13;20.75;;;11.60;99.90;;;;;;4994744;28;20419;-71
2021/09/23 00:35:15;;;;;;;22.20;18.50;;;11.50;99.90;;;;;;5015134;28;20167;-71
2021/09/23 00:37:41;;;;;;;19.93;16.60;;;11.50;99.90;;;;;;5015024;28;20501;-71
2021/09/23 00:40:10;;;;;;;19.07;15.97;;;11.50;99.90;;;;;;5016311;28;20426;-70
2021/09/23 00:42:40;;;;;;;21.60;15.93;;;11.60;99.90;;;;;;5019257;28;20202;-70
2021/09/23 00:45:07;;;;;;;18.97;15.03;;;11.70;99.90;;;;;;5035727;28;20902;-70
2021/09/23 00:47:33;;;;;;;20.90;16.57;;;11.70;99.90;;;;;;5035037;28;20406;-70
2021/09/23 00:50:00;;;;;;;18.60;14.47;;;11.80;99.90;;;;;;5049511;28;20435;-69
2021/09/23 00:52:27;;;;;;;20.50;14.80;;;11.90;99.90;;;;;;5054634;28;20228;-70
2021/09/23 00:54:55;;;;;;;20.20;16.10;;;11.80;99.90;;;;;;5021381;28;20422;-69
2021/09/23 00:57:21;;;;;;;23.70;17.20;;;11.80;99.90;;;;;;5019463;28;20418;-70
2021/09/23 00:59:48;;;;;;;18.63;15.43;;;11.80;99.90;;;;;;5019573;28;20429;-70
2021/09/23 01:02:15;;;;;;;21.27;15.40;;;11.90;99.90;;;;;;5020500;28;20458;-70
2021/09/23 01:04:44;;;;;;;18.63;15.67;;;11.90;99.90;;;;;;5015753;28;20423;-70
2021/09/23 01:07:12;;;;;;;20.67;15.53;;;11.90;99.90;;;;;;5014814;28;20752;-70
2021/09/23 01:09:39;;;;;;;19.67;15.80;;;12.00;99.90;;;;;;5018942;28;20414;-70
2021/09/23 01:12:05;;;;;;;21.00;15.60;;;12.00;99.90;;;;;;5014307;28;20438;-70
2021/09/23 01:14:31;;;;;;;23.23;17.67;;;12.00;99.90;;;;;;5015353;28;20894;-70
2021/09/23 01:16:56;;;;;;;20.00;17.90;;;11.90;99.90;;;;;;5014518;28;20438;-70
2021/09/23 01:19:22;;;;;;;22.03;18.47;;;11.60;99.90;;;;;;5014156;28;20179;-69
2021/09/23 01:21:47;;;;;;;22.83;17.50;;;11.40;99.90;;;;;;5013871;28;20292;-70
2021/09/23 01:24:13;;;;;;;22.13;18.60;;;11.40;99.90;;;;;;5013837;28;20180;-70
2021/09/23 01:26:38;;;;;;;22.27;18.80;;;11.40;99.90;;;;;;5015066;28;20536;-70
2021/09/23 01:29:04;;;;;;;22.50;19.30;;;11.40;99.90;;;;;;5027104;28;20519;-70
2021/09/23 01:31:29;;;;;;;23.50;17.37;;;11.40;99.90;;;;;;5033635;28;20229;-71
2021/09/23 01:33:55;;;;;;;22.30;18.90;;;11.40;99.90;;;;;;5026787;28;20877;-70
2021/09/23 01:36:21;;;;;;;26.27;18.80;;;11.40;99.90;;;;;;5025346;28;20189;-70
2021/09/23 01:38:50;;;;;;;21.90;18.43;;;11.40;99.90;;;;;;5033243;28;20187;-70
2021/09/23 01:41:15;;;;;;;24.70;18.70;;;11.40;99.90;;;;;;5033541;28;20226;-70
2021/09/23 01:43:41;;;;;;;25.90;19.63;;;11.40;99.90;;;;;;5037210;28;20499;-71
2021/09/23 01:46:06;;;;;;;24.50;19.83;;;11.30;99.90;;;;;;5035761;28;20179;-71
2021/09/23 01:48:32;;;;;;;26.10;19.87;;;11.20;99.90;;;;;;5018998;28;20167;-70
2021/09/23 01:50:57;;;;;;;24.17;18.10;;;11.10;99.90;;;;;;5019402;28;20187;-70
2021/09/23 01:53:23;;;;;;;24.40;19.50;;;11.10;99.90;;;;;;5019677;28;20201;-70
2021/09/23 01:55:48;;;;;;;26.70;18.87;;;11.10;99.90;;;;;;5017872;28;20176;-70
2021/09/23 01:58:15;;;;;;;24.63;18.40;;;11.10;99.90;;;;;;5032589;28;20205;-69
2021/09/23 02:00:40;;;;;;;22.07;18.90;;;11.10;99.90;;;;;;5037886;28;20871;-70
2021/09/23 02:03:06;;;;;;;22.70;18.03;;;11.10;99.90;;;;;;5037409;28;20196;-70
2021/09/23 02:05:31;;;;;;;22.37;16.47;;;11.20;99.90;;;;;;5019538;28;20624;-71
2021/09/23 02:07:57;;;;;;;24.13;18.20;;;11.20;99.90;;;;;;5032410;28;20207;-70
2021/09/23 02:10:22;;;;;;;20.87;17.60;;;11.30;99.90;;;;;;5017092;28;20949;-70
2021/09/23 02:12:48;;;;;;;19.63;17.30;;;11.30;99.90;;;;;;5016589;28;20230;-71
2021/09/23 02:15:13;;;;;;;24.00;18.87;;;11.30;99.90;;;;;;5017380;28;20551;-71
2021/09/23 02:17:39;;;;;;;22.73;18.07;;;11.30;99.90;;;;;;5017433;28;20538;-70
2021/09/23 02:20:05;;;;;;;20.50;16.67;;;11.30;99.90;;;;;;5018130;28;20176;-71
2021/09/23 02:22:32;;;;;;;24.13;16.93;;;11.30;99.90;;;;;;5017002;28;20214;-70
2021/09/23 02:24:58;;;;;;;23.30;18.60;;;11.30;99.90;;;;;;4999884;28;20446;-70
2021/09/23 02:27:23;;;;;;;23.47;18.07;;;11.20;99.90;;;;;;5017417;28;20493;-70
2021/09/23 02:29:49;;;;;;;22.80;18.80;;;11.20;99.90;;;;;;5026947;28;20489;-70
2021/09/23 02:32:15;;;;;;;21.00;18.07;;;11.20;99.90;;;;;;5026920;28;20207;-70
2021/09/23 02:34:40;;;;;;;20.97;18.40;;;11.20;99.90;;;;;;5037104;28;20171;-70
2021/09/23 02:37:06;;;;;;;21.47;17.20;;;11.20;99.90;;;;;;5032807;28;20207;-71
2021/09/23 02:39:32;;;;;;;25.17;21.30;;;11.10;99.90;;;;;;5016087;28;20461;-71
2021/09/23 02:41:58;;;;;;;21.30;17.90;;;11.10;99.90;;;;;;5016745;28;20200;-71
2021/09/23 02:44:23;;;;;;;22.70;17.50;;;11.10;99.90;;;;;;5018777;28;20481;-70
2021/09/23 02:46:49;;;;;;;23.30;18.33;;;11.10;99.90;;;;;;5017684;28;20659;-70
2021/09/23 02:49:15;;;;;;;21.17;17.20;;;11.10;99.90;;;;;;5016347;28;20171;-70
2021/09/23 02:51:40;;;;;;;21.00;17.67;;;11.10;99.90;;;;;;4998619;28;20280;-70
2021/09/23 02:54:06;;;;;;;22.90;15.30;;;11.10;99.90;;;;;;5017675;28;20187;-71
2021/09/23 02:56:31;;;;;;;21.43;16.77;;;11.00;99.90;;;;;;5016091;28;20245;-70
2021/09/23 02:58:57;;;;;;;22.53;15.97;;;11.00;99.90;;;;;;5016569;28;20532;-69
2021/09/23 03:01:23;;;;;;;21.17;17.53;;;11.00;99.90;;;;;;5016231;28;20330;-70
2021/09/23 03:03:48;;;;;;;20.93;17.37;;;11.00;99.90;;;;;;5017489;28;20195;-70
2021/09/23 03:06:14;;;;;;;19.77;16.83;;;11.00;99.90;;;;;;4999200;28;20172;-70
2021/09/23 03:08:40;;;;;;;20.90;16.40;;;11.10;99.90;;;;;;5016255;28;20202;-71
2021/09/23 03:11:05;;;;;;;16.00;14.23;;;11.10;99.90;;;;;;5016122;28;20465;-70
2021/09/23 03:13:31;;;;;;;19.37;15.27;;;11.10;99.90;;;;;;5016222;28;20541;-69
2021/09/23 03:15:57;;;;;;;21.27;16.23;;;11.10;99.90;;;;;;5016915;28;20189;-70
2021/09/23 03:18:22;;;;;;;20.43;16.70;;;11.20;99.90;;;;;;5015738;28;20534;-70
2021/09/23 03:20:48;;;;;;;20.37;15.30;;;11.20;99.90;;;;;;5015779;28;20305;-69
2021/09/23 03:23:15;;;;;;;18.40;14.73;;;11.20;99.90;;;;;;5015952;28;20286;-70
2021/09/23 03:25:42;;;;;;;19.53;14.50;;;11.20;99.90;;;;;;5016936;28;20912;-70
2021/09/23 03:28:07;;;;;;;18.80;15.53;;;11.20;99.90;;;;;;5015548;28;20402;-70
2021/09/23 03:30:34;;;;;;;18.00;16.10;;;11.30;99.90;;;;;;5014946;28;20457;-70
2021/09/23 03:33:04;;;;;;;17.70;15.00;;;11.30;99.90;;;;;;5015613;28;20896;-71
2021/09/23 03:35:30;;;;;;;21.00;17.27;;;11.20;99.90;;;;;;5023071;28;20415;-71
2021/09/23 03:37:56;;;;;;;19.20;14.33;;;11.20;99.90;;;;;;5022878;28;20424;-71
2021/09/23 03:40:22;;;;;;;17.10;14.70;;;11.30;99.90;;;;;;5034974;28;20171;-70
2021/09/23 03:42:47;;;;;;;19.90;14.23;;;11.30;99.90;;;;;;5035093;28;20674;-71
2021/09/23 03:45:13;;;;;;;20.17;17.83;;;11.30;99.90;;;;;;5033138;28;20401;-72
2021/09/23 03:47:39;;;;;;;16.53;14.70;;;11.30;99.90;;;;;;5021609;28;20191;-71
2021/09/23 03:50:05;;;;;;;16.97;15.20;;;11.30;99.90;;;;;;5015173;28;20629;-70
2021/09/23 03:52:31;;;;;;;19.00;15.13;;;11.20;99.90;;;;;;5015461;28;20442;-71
2021/09/23 03:54:57;;;;;;;20.23;16.23;;;11.10;99.90;;;;;;5015300;28;20407;-69
2021/09/23 03:57:22;;;;;;;21.03;16.87;;;11.10;99.90;;;;;;5017269;28;20191;-70
2021/09/23 03:59:48;;;;;;;22.40;16.33;;;11.00;99.90;;;;;;5016050;28;20660;-70
2021/09/23 04:02:14;;;;;;;21.67;15.70;;;11.10;99.90;;;;;;5015944;28;20592;-72
2021/09/23 04:04:40;;;;;;;17.77;14.70;;;11.20;99.90;;;;;;5018701;28;20241;-70
2021/09/23 04:07:06;;;;;;;20.20;15.40;;;11.10;99.90;;;;;;5042306;28;20424;-71
2021/09/23 04:09:32;;;;;;;18.90;14.73;;;11.20;99.90;;;;;;5056390;28;20209;-71
2021/09/23 04:11:57;;;;;;;15.80;13.50;;;11.20;99.90;;;;;;5076110;28;20182;-71
2021/09/23 04:14:23;;;;;;;18.40;14.90;;;11.10;99.90;;;;;;5057218;28;20268;-70
2021/09/23 04:16:50;;;;;;;17.83;14.93;;;11.00;99.90;;;;;;5076154;28;20246;-71
2021/09/23 04:19:17;;;;;;;18.30;14.73;;;11.00;99.90;;;;;;5056065;28;20190;-71
2021/09/23 04:21:42;;;;;;;17.03;14.93;;;11.00;99.90;;;;;;5022491;28;20446;-71
2021/09/23 04:24:08;;;;;;;19.20;15.13;;;11.00;99.90;;;;;;5014975;28;20456;-71
2021/09/23 04:26:33;;;;;;;16.10;14.27;;;11.00;99.90;;;;;;5015043;28;20175;-71
2021/09/23 04:28:59;;;;;;;18.60;14.33;;;11.00;99.90;;;;;;5016116;28;20286;-71
2021/09/23 04:31:24;;;;;;;18.10;14.67;;;11.00;99.90;;;;;;5029755;28;20244;-71
2021/09/23 04:33:50;;;;;;;16.83;14.30;;;11.10;99.90;;;;;;5045516;28;20248;-71
2021/09/23 04:36:15;;;;;;;17.20;14.07;;;11.10;99.90;;;;;;5034529;28;20245;-70
2021/09/23 04:38:41;;;;;;;18.93;13.63;;;11.10;99.90;;;;;;5033800;28;20209;-71
2021/09/23 04:41:08;;;;;;;18.17;14.50;;;11.10;99.90;;;;;;5028196;28;20191;-70
2021/09/23 04:43:33;;;;;;;17.17;13.40;;;11.00;99.90;;;;;;5026837;28;20468;-71
2021/09/23 04:45:59;;;;;;;16.00;12.87;;;11.00;99.90;;;;;;5023257;28;20490;-71
2021/09/23 04:48:25;;;;;;;17.20;13.80;;;11.00;99.90;;;;;;5003378;28;20180;-70
2021/09/23 04:50:50;;;;;;;16.93;13.77;;;11.00;99.90;;;;;;5034069;28;20213;-71
2021/09/23 04:53:16;;;;;;;19.10;16.17;;;10.90;99.90;;;;;;5028660;28;20199;-71
2021/09/23 04:55:42;;;;;;;20.03;15.27;;;10.90;99.90;;;;;;5027476;28;20280;-71
2021/09/23 04:58:07;;;;;;;18.73;15.10;;;10.90;99.90;;;;;;5027182;28;20190;-71
2021/09/23 05:00:33;;;;;;;19.90;17.33;;;11.00;99.90;;;;;;5014694;28;20419;-71
2021/09/23 05:02:58;;;;;;;20.10;16.50;;;11.00;99.90;;;;;;5016715;28;20481;-72
2021/09/23 05:05:24;;;;;;;17.80;15.00;;;11.10;99.90;;;;;;5028269;28;20225;-72
2021/09/23 05:07:49;;;;;;;17.43;14.57;;;11.10;99.90;;;;;;5010788;28;20207;-72
2021/09/23 05:10:15;;;;;;;15.57;13.97;;;11.10;99.90;;;;;;5014039;28;20215;-71
2021/09/23 05:12:41;;;;;;;18.13;13.10;;;11.10;99.90;;;;;;5028821;28;20664;-72
2021/09/23 05:15:07;;;;;;;17.47;14.50;;;11.20;99.90;;;;;;5003151;28;20547;-70
2021/09/23 05:17:33;;;;;;;15.47;13.17;;;11.20;99.90;;;;;;5029094;28;20544;-72
2021/09/23 05:19:58;;;;;;;17.47;14.17;;;11.20;99.90;;;;;;5022259;28;20528;-72
2021/09/23 05:22:27;;;;;;;16.77;14.07;;;11.20;99.90;;;;;;4987067;28;20292;-71
2021/09/23 05:25:03;;;;;;;15.80;13.57;;;11.30;99.90;;;;;;5024745;28;20218;-72
2021/09/23 05:27:29;;;;;;;19.47;15.07;;;11.30;99.90;;;;;;5033374;28;20460;-71
2021/09/23 05:29:54;;;;;;;18.23;14.70;;;11.30;99.90;;;;;;5013537;28;20449;-72
2021/09/23 05:32:21;;;;;;;19.03;15.00;;;11.30;99.90;;;;;;5020621;28;20207;-71
2021/09/23 05:34:46;;;;;;;17.77;13.90;;;11.40;99.90;;;;;;5029497;28;20234;-71
2021/09/23 05:37:12;;;;;;;17.93;15.17;;;11.40;99.90;;;;;;5022208;28;20494;-73
2021/09/23 05:39:37;;;;;;;17.90;14.93;;;11.40;99.90;;;;;;5026787;28;20210;-73
2021/09/23 05:42:03;;;;;;;18.47;15.03;;;11.40;99.90;;;;;;5028475;28;20222;-70
2021/09/23 05:47:04;;;;;;;16.30;13.20;;;11.40;99.90;;;;;;5301187;22;21117;-68
2021/09/23 05:49:30;;;;;;;15.60;12.77;;;11.40;99.90;;;;;;4983256;28;20462;-71
2021/09/23 05:51:56;;;;;;;14.43;12.93;;;11.30;99.90;;;;;;4978457;28;20692;-71
2021/09/23 05:54:22;;;;;;;14.50;12.70;;;11.30;99.90;;;;;;4986908;28;20173;-72
2021/09/23 05:56:48;;;;;;;17.30;14.07;;;11.20;99.90;;;;;;4983346;28;20497;-71
2021/09/23 05:59:14;;;;;;;17.33;13.40;;;11.20;99.90;;;;;;4980360;28;20432;-71
2021/09/23 06:01:40;;;;;;;16.67;14.33;;;11.20;99.90;;;;;;4990054;28;20442;-71
2021/09/23 06:04:05;;;;;;;14.90;12.60;;;11.30;99.90;;;;;;4989332;28;20184;-69
2021/09/23 06:06:31;;;;;;;19.23;13.50;;;11.30;99.90;;;;;;4984954;28;20183;-69
2021/09/23 06:08:56;;;;;;;17.27;13.80;;;11.40;99.90;;;;;;4991670;28;20692;-71
2021/09/23 06:11:22;;;;;;;18.13;13.80;;;11.50;99.90;;;;;;4992058;28;20660;-70
2021/09/23 06:13:47;;;;;;;13.27;11.33;;;11.50;99.90;;;;;;4978226;28;20212;-70
2021/09/23 06:16:13;;;;;;;13.70;11.20;;;11.60;99.90;;;;;;4987621;28;20188;-70
2021/09/23 06:18:39;;;;;;;14.23;10.80;;;11.70;99.90;;;;;;4988562;28;20533;-70
2021/09/23 06:21:06;;;;;;;12.63;10.77;;;11.90;99.90;;;;;;4993677;28;20490;-72
2021/09/23 06:23:31;;;;;;;12.47;10.07;;;12.10;99.90;;;;;;4991528;28;20208;-71
2021/09/23 06:25:58;;;;;;;12.13;9.43;;;12.20;99.90;;;;;;4989320;28;20422;-70
2021/09/23 06:28:23;;;;;;;13.17;8.87;;;12.30;99.90;;;;;;4990744;28;20200;-71
2021/09/23 06:30:49;;;;;;;10.20;7.97;;;12.40;99.90;;;;;;4992078;28;20450;-70
2021/09/23 06:33:14;;;;;;;11.37;9.27;;;12.50;99.90;;;;;;5007348;28;20202;-69
2021/09/23 06:35:40;;;;;;;11.47;8.60;;;12.60;99.90;;;;;;4997360;28;20219;-70
2021/09/23 06:38:06;;;;;;;9.73;8.37;;;12.70;99.90;;;;;;4990436;28;20223;-71
2021/09/23 06:40:31;;;;;;;10.33;7.93;;;12.80;99.90;;;;;;4981380;28;20191;-71
2021/09/23 06:42:57;;;;;;;12.40;8.87;;;12.90;99.90;;;;;;4993114;28;20631;-72
2021/09/23 06:45:22;;;;;;;10.03;8.23;;;12.90;99.90;;;;;;4994332;28;20188;-72
2021/09/23 06:47:48;;;;;;;10.47;9.37;;;13.00;99.90;;;;;;4991104;28;20218;-72
2021/09/23 06:50:14;;;;;;;10.57;7.97;;;13.00;99.90;;;;;;4994739;28;20227;-71
2021/09/23 06:52:40;;;;;;;11.60;9.10;;;13.10;99.90;;;;;;4993419;28;20887;-71
2021/09/23 06:55:07;;;;;;;12.13;8.77;;;13.10;99.90;;;;;;4993472;28;20435;-70
2021/09/23 06:57:32;;;;;;;13.17;9.40;;;13.20;99.90;;;;;;4993035;28;20462;-71
2021/09/23 06:59:58;;;;;;;11.63;9.57;;;13.30;99.90;;;;;;4991452;28;20890;-72
2021/09/23 07:02:23;;;;;;;14.07;9.47;;;13.30;99.90;;;;;;4993161;28;20242;-70
2021/09/23 07:04:49;;;;;;;12.67;9.27;;;13.30;99.90;;;;;;4992973;28;20534;-69
2021/09/23 07:07:14;;;;;;;12.07;8.23;;;13.40;99.90;;;;;;4992902;28;20236;-70
2021/09/23 07:09:40;;;;;;;11.53;9.20;;;13.50;99.90;;;;;;4993137;28;20184;-71
2021/09/23 07:12:06;;;;;;;10.03;8.87;;;13.50;99.90;;;;;;4977363;28;20195;-69
2021/09/23 07:14:31;;;;;;;12.97;8.67;;;13.60;99.90;;;;;;4993277;28;20660;-70
2021/09/23 07:16:57;;;;;;;10.90;7.90;;;13.60;99.90;;;;;;4992970;28;20651;-69
2021/09/23 07:19:22;;;;;;;9.67;7.43;;;13.60;99.90;;;;;;4993679;28;20196;-69
2021/09/23 07:21:48;;;;;;;10.97;7.70;;;13.70;99.90;;;;;;4984203;28;20223;-71
2021/09/23 07:24:13;;;;;;;10.70;9.03;;;13.70;99.90;;;;;;4978290;28;20180;-71
2021/09/23 07:26:40;;;;;;;10.10;8.40;;;13.80;99.90;;;;;;4992553;28;20326;-70
2021/09/23 07:29:07;;;;;;;12.03;8.27;;;13.90;99.90;;;;;;4992702;28;20223;-70
2021/09/23 07:31:33;;;;;;;8.83;7.93;;;13.90;99.90;;;;;;4991676;28;20424;-70
2021/09/23 07:33:59;;;;;;;10.80;8.80;;;14.00;99.90;;;;;;4993178;28;20415;-70
2021/09/23 07:36:25;;;;;;;10.63;7.80;;;14.00;99.90;;;;;;4993416;28;20431;-69
2021/09/23 07:38:50;;;;;;;12.60;9.20;;;14.10;99.90;;;;;;4993779;28;20223;-71
2021/09/23 07:41:16;;;;;;;12.27;9.60;;;14.10;99.90;;;;;;4992563;28;20604;-72
2021/09/23 07:43:41;;;;;;;10.00;8.33;;;14.20;99.90;;;;;;4995465;28;20215;-71
2021/09/23 07:46:07;;;;;;;11.63;8.80;;;14.20;99.90;;;;;;4994605;28;20172;-71
2021/09/23 07:48:32;;;;;;;18.03;8.80;;;14.20;99.90;;;;;;5002766;28;20231;-71
2021/09/23 07:50:58;;;;;;;9.27;8.27;;;14.30;99.90;;;;;;5003878;28;20201;-71
2021/09/23 07:53:28;;;;;;;9.83;7.90;;;14.40;99.90;;;;;;4993153;28;20197;-70
2021/09/23 07:55:53;;;;;;;9.57;7.87;;;14.50;99.90;;;;;;5006288;28;20422;-70
2021/09/23 07:58:19;;;;;;;9.70;8.10;;;14.50;99.90;;;;;;5002977;28;20447;-71
2021/09/23 08:00:45;;;;;;;9.50;8.50;;;14.60;99.90;;;;;;4985317;28;20725;-70
2021/09/23 08:03:10;;;;;;;8.80;7.70;;;14.70;99.90;;;;;;4987062;28;20658;-69
2021/09/23 08:05:36;;;;;;;9.73;8.20;;;14.80;99.90;;;;;;4992818;28;20525;-71
2021/09/23 08:08:02;;;;;;;10.13;7.83;;;14.90;99.90;;;;;;4990692;28;20385;-70
2021/09/23 08:10:28;;;;;;;8.67;7.30;;;14.90;99.90;;;;;;4992468;28;20318;-71
2021/09/23 08:12:54;;;;;;;9.80;7.90;;;15.00;99.90;;;;;;4992280;28;21010;-72
2021/09/23 08:15:19;;;;;;;8.47;7.00;;;15.10;99.90;;;;;;4992096;28;20184;-72
2021/09/23 08:17:45;;;;;;;10.10;8.17;;;15.20;99.90;;;;;;4992281;28;20663;-70
2021/09/23 08:20:11;;;;;;;14.57;8.07;;;15.10;99.90;;;;;;4992334;28;20548;-71
2021/09/23 08:22:37;;;;;;;10.27;8.20;;;15.20;99.90;;;;;;4990828;28;20231;-70
2021/09/23 08:25:05;;;;;;;10.40;7.40;;;15.20;99.90;;;;;;4991630;28;20477;-71
2021/09/23 08:27:31;;;;;;;10.90;8.40;;;15.30;99.90;;;;;;4992965;28;20192;-71
2021/09/23 08:29:56;;;;;;;9.67;8.67;;;15.30;99.90;;;;;;4993676;28;20426;-71
2021/09/23 08:32:22;;;;;;;10.30;8.53;;;15.30;99.90;;;;;;4993917;28;20479;-70
2021/09/23 08:34:48;;;;;;;9.70;8.70;;;15.40;99.90;;;;;;4996230;28;20283;-71
2021/09/23 08:37:14;;;;;;;9.73;8.33;;;15.50;99.90;;;;;;4991526;28;20254;-72
2021/09/23 08:39:40;;;;;;;11.23;8.80;;;15.60;99.90;;;;;;4991795;28;20827;-71
2021/09/23 08:42:05;;;;;;;11.90;8.53;;;15.50;99.90;;;;;;4991475;28;20467;-70
2021/09/23 08:44:32;;;;;;;11.70;8.70;;;15.60;99.90;;;;;;4991686;28;20588;-71
2021/09/23 08:46:58;;;;;;;11.43;8.13;;;15.60;99.90;;;;;;4991817;28;20667;-72
2021/09/23 08:49:23;;;;;;;9.30;7.90;;;15.70;99.90;;;;;;4991757;28;20436;-70
2021/09/23 08:51:49;;;;;;;9.57;8.20;;;15.80;99.90;;;;;;4991819;28;21155;-69
2021/09/23 08:54:17;;;;;;;10.27;8.40;;;15.80;99.90;;;;;;4990708;28;20188;-72
2021/09/23 08:56:44;;;;;;;9.10;7.90;;;15.90;99.90;;;;;;4991179;28;20411;-69
2021/09/23 08:59:09;;;;;;;10.90;7.97;;;16.00;99.90;;;;;;4991687;28;20442;-72
2021/09/23 09:01:44;;;;;;;7.87;6.90;;;16.00;99.90;;;;;;4991211;28;20408;-71
2021/09/23 09:04:10;;;;;;;11.00;7.30;;;16.10;99.90;;;;;;4991422;28;20259;-70
2021/09/23 09:06:35;;;;;;;8.07;7.10;;;16.20;99.90;;;;;;4991104;28;20995;-69
2021/09/23 09:09:02;;;;;;;8.20;7.40;;;16.10;99.90;;;;;;4991770;28;20215;-70
2021/09/23 09:11:30;;;;;;;15.50;7.47;;;16.30;99.90;;;;;;4990213;28;20238;-71
2021/09/23 09:13:56;;;;;;;10.33;7.10;;;16.30;99.90;;;;;;4991889;28;20431;-70
2021/09/23 09:16:27;;;;;;;9.25;8.35;;;16.40;99.90;;;;;;4987999;28;20428;-71
2021/09/23 09:18:56;;;;;;;7.90;7.10;;;16.50;99.90;;;;;;4990936;28;20261;-72
2021/09/23 09:21:24;;;;;;;10.93;8.13;;;16.60;99.90;;;;;;4991391;28;20743;-71
2021/09/23 09:23:51;;;;;;;8.13;7.33;;;16.60;99.90;;;;;;4991149;28;20458;-70
2021/09/23 09:26:26;;;;;;;9.57;7.37;;;16.70;99.90;;;;;;4991277;28;20411;-71
2021/09/23 09:28:57;;;;;;;8.90;7.10;;;16.70;99.90;;;;;;4990792;28;20952;-71
2021/09/23 09:31:23;;;;;;;8.20;6.83;;;16.80;99.90;;;;;;4991579;28;20403;-70
2021/09/23 09:33:51;;;;;;;7.93;6.90;;;16.80;99.90;;;;;;4991067;28;20483;-72
2021/09/23 09:36:27;;;;;;;9.80;7.00;;;16.90;99.90;;;;;;4990992;28;20438;-71
2021/09/23 09:39:02;;;;;;;8.67;7.17;;;17.10;99.90;;;;;;4991324;28;20824;-72
2021/09/23 09:41:31;;;;;;;10.00;6.90;;;17.10;99.90;;;;;;4991602;28;20402;-71
2021/09/23 09:43:58;;;;;;;8.67;6.77;;;17.20;99.90;;;;;;4976997;28;21031;-71
2021/09/23 09:46:29;;;;;;;6.97;5.90;;;17.20;99.90;;;;;;4989235;28;20430;-72
2021/09/23 09:48:55;;;;;;;7.63;6.43;;;17.30;99.90;;;;;;4988956;28;20827;-71
2021/09/23 09:51:23;;;;;;;6.70;6.00;;;17.20;99.90;;;;;;4991249;28;20427;-71
2021/09/23 09:53:59;;;;;;;7.60;6.70;;;17.30;99.90;;;;;;4991189;28;20558;-72
2021/09/23 09:56:25;;;;;;;7.77;6.23;;;17.30;99.90;;;;;;4979287;28;20455;-70
2021/09/23 09:59:05;;;;;;;8.77;6.13;;;17.30;99.90;;;;;;4981374;28;20447;-71
2021/09/23 10:01:31;;;;;;;6.80;6.20;;;17.50;99.90;;;;;;4973179;28;20439;-71
2021/09/23 10:03:57;;;;;;;7.87;6.00;;;17.60;99.90;;;;;;4986081;28;20462;-70
2021/09/23 10:06:23;;;;;;;8.00;6.07;;;17.70;99.90;;;;;;4984852;28;20762;-71
2021/09/23 10:08:50;;;;;;;8.00;5.87;;;17.80;99.90;;;;;;4987791;28;20982;-71
2021/09/23 10:11:16;;;;;;;7.80;5.80;;;17.90;99.90;;;;;;4980693;28;20432;-72
2021/09/23 10:13:42;;;;;;;6.03;5.50;;;18.00;99.90;;;;;;4990360;28;20427;-71
2021/09/23 10:16:08;;;;;;;9.13;6.23;;;18.00;99.90;;;;;;4981354;28;20470;-70
2021/09/23 10:18:34;;;;;;;9.73;6.67;;;17.90;99.90;;;;;;4981209;28;20216;-71
2021/09/23 10:21:01;;;;;;;10.17;6.00;;;17.90;99.90;;;;;;4988349;28;20542;-70
2021/09/23 10:23:29;;;;;;;8.67;6.37;;;18.00;99.90;;;;;;4980451;28;20475;-72
2021/09/23 10:25:57;;;;;;;10.00;6.80;;;18.10;99.90;;;;;;4980918;28;20956;-72
2021/09/23 10:28:25;;;;;;;9.53;6.60;;;18.20;99.90;;;;;;4984723;28;20538;-72
2021/09/23 10:30:51;;;;;;;6.60;6.00;;;18.30;99.90;;;;;;4988061;28;20431;-71
2021/09/23 10:33:17;;;;;;;9.77;6.27;;;18.40;99.90;;;;;;4987415;28;20494;-70
2021/09/23 10:35:44;;;;;;;8.30;5.87;;;18.50;99.90;;;;;;4976757;28;20451;-71
2021/09/23 10:38:11;;;;;;;10.90;6.53;;;18.60;99.90;;;;;;4978166;28;20455;-71
2021/09/23 10:40:41;;;;;;;6.60;5.90;;;18.60;99.90;;;;;;4989402;28;20439;-72
2021/09/23 10:43:12;;;;;;;6.60;5.90;;;18.60;99.90;;;;;;4976065;28;20526;-73
2021/09/23 10:45:41;;;;;;;9.27;6.25;;;18.60;99.90;;;;;;4993348;28;20892;-71
2021/09/23 10:48:08;;;;;;;6.73;5.57;;;18.60;99.90;;;;;;4993191;28;20253;-71
2021/09/23 10:50:37;;;;;;;8.37;5.77;;;18.50;99.90;;;;;;4984360;28;20447;-71
2021/09/23 10:53:05;;;;;;;6.27;5.67;;;18.50;99.90;;;;;;4994942;28;20423;-71
2021/09/23 10:55:32;;;;;;;9.40;6.17;;;18.50;99.90;;;;;;4994630;28;20563;-71
2021/09/23 10:57:58;;;;;;;6.97;6.20;;;18.30;99.60;;;;;;4996048;28;20489;-71
2021/09/23 11:00:31;;;;;;;8.93;5.80;;;18.20;99.40;;;;;;4995592;28;20419;-70
2021/09/23 11:02:57;;;;;;;10.60;5.57;;;18.30;99.70;;;;;;4996352;28;20188;-71
2021/09/23 11:05:23;;;;;;;8.90;5.20;;;18.30;99.90;;;;;;4996949;28;20407;-70
2021/09/23 11:07:51;;;;;;;7.20;5.40;;;18.30;99.90;;;;;;4997687;28;20205;-71
2021/09/23 11:10:24;;;;;;;9.30;5.37;;;18.40;99.90;;;;;;5001581;28;20411;-72
2021/09/23 11:12:53;;;;;;;7.27;6.50;;;18.60;99.90;;;;;;5015130;28;20453;-71
2021/09/23 11:15:22;;;;;;;8.43;5.50;;;18.50;99.50;;;;;;5005623;28;20431;-71
2021/09/23 11:17:48;;;;;;;6.17;5.57;;;18.60;98.70;;;;;;5008628;28;20424;-70
2021/09/23 11:20:19;;;;;;;8.73;5.07;;;18.60;98.40;;;;;;5017835;28;20408;-70
2021/09/23 11:22:48;;;;;;;8.10;5.70;;;18.70;98.30;;;;;;5013571;28;20482;-71
2021/09/23 11:25:19;;;;;;;9.90;6.37;;;18.60;98.30;;;;;;4997975;28;20474;-71
2021/09/23 11:27:46;;;;;;;8.33;5.33;;;18.60;98.50;;;;;;4997347;28;20755;-71
2021/09/23 11:30:15;;;;;;;10.03;5.37;;;18.60;98.30;;;;;;4996851;28;20431;-71
2021/09/23 11:32:49;;;;;;;8.30;6.40;;;18.60;97.80;;;;;;4996284;28;20485;-71
2021/09/23 11:35:16;;;;;;;9.00;5.33;;;18.70;97.60;;;;;;4996521;28;20411;-71
2021/09/23 11:37:42;;;;;;;6.70;5.30;;;18.70;97.40;;;;;;4995866;28;20440;-71
2021/09/23 11:40:09;;;;;;;8.80;6.03;;;18.70;97.10;;;;;;4996224;28;20490;-71
2021/09/23 11:42:39;;;;;;;7.90;5.85;;;18.70;96.90;;;;;;4996107;28;20925;-71
2021/09/23 11:45:11;;;;;;;6.47;5.87;;;18.70;97.10;;;;;;4995051;28;20279;-72
2021/09/23 11:47:48;;;;;;;6.23;5.07;;;18.70;97.30;;;;;;4996054;28;20434;-71
2021/09/23 11:50:42;;;;;;;6.50;5.20;;;18.70;96.90;;;;;;4995702;28;20457;-70
2021/09/23 11:53:14;;;;;;;10.87;4.90;;;18.80;96.90;;;;;;4997405;28;20419;-71
2021/09/23 11:55:42;;;;;;;6.67;4.90;;;18.90;97.10;;;;;;4996944;28;20435;-70
2021/09/23 11:58:14;;;;;;;9.93;5.57;;;18.90;97.30;;;;;;4995896;28;20440;-72
2021/09/23 12:00:45;;;;;;;7.90;6.30;;;18.80;97.30;;;;;;4997467;28;20412;-71
2021/09/23 12:03:12;;;;;;;11.10;5.80;;;18.80;97.10;;;;;;4996543;28;20545;-72
2021/09/23 12:05:39;;;;;;;10.80;5.60;;;18.90;97.70;;;;;;4996284;28;20486;-71
2021/09/23 12:08:06;;;;;;;8.83;5.77;;;19.00;98.10;;;;;;4996950;28;20435;-71
2021/09/23 12:10:32;;;;;;;6.67;5.73;;;19.00;97.90;;;;;;4996860;28;20407;-71
2021/09/23 12:12:59;;;;;;;10.83;6.20;;;19.00;97.90;;;;;;4996280;28;20740;-71
2021/09/23 12:15:28;;;;;;;12.87;6.43;;;18.90;96.90;;;;;;4995771;28;20499;-72
2021/09/23 12:18:09;;;;;;;9.80;6.60;;;18.90;96.80;;;;;;4998672;28;20449;-71
2021/09/23 12:20:43;;;;;;;6.80;6.10;;;19.00;97.00;;;;;;4996174;28;20410;-71
2021/09/23 12:23:34;;;;;;;10.30;5.97;;;19.00;96.70;;;;;;4994363;28;20466;-71
2021/09/23 12:26:21;;;;;;;6.63;5.90;;;19.10;96.80;;;;;;4995265;28;20446;-71
2021/09/23 12:28:49;;;;;;;6.03;5.43;;;19.10;96.90;;;;;;4995250;28;20497;-70
2021/09/23 12:31:16;;;;;;;9.67;6.77;;;19.10;96.80;;;;;;4995679;28;20414;-71
2021/09/23 12:33:54;;;;;;;7.37;5.63;;;19.10;96.80;;;;;;4995336;28;20408;-70
2021/09/23 12:36:32;;;;;;;8.47;5.83;;;19.20;96.90;;;;;;4995317;28;20426;-71